Chlef Aboubakr Belkaid International Airport

DAOI · Chlef, 阿尔及利亚

罗盘
风向 的 风向 200° Ech Cheliff Airport 7/25
风: 5 kt, 2 beaufort

3 kt

4 kt
改变
0 1.000 2.000 3.000 4.000 5.000
CAVOK
METAR DAOB 280300Z 20005KT CAVOK 03/M08 Q1021

METAR Ech Cheliff Airport - DAOI/CFK

Ech Cheliff Airport是,阿尔及利亚中的中型机场。 该机场有2条跑道: 7/25 和 8/26. 该领域的国际民航组织标志是DAOI 它的国际航空运输协会代码是CFK.

这份报告是针对2022年11月28日 04:00, 当地时间在Bou Chekif Airport进行的。

机场观察

风向为200°,速度为5 kt。

天气为CAVOK。这意味着在5.000 ft或MSA(最低安全高度)以下(以较高者为准)以下没有云。这也意味着没有观测到积雨云或高耸的积云,可见度为10 km 或者更多或更高。此外,不会有雾,降雨或其他重要天气。

温度为3 °C,阵风为-2 °C。 露点为-8 °C,相对湿度为45%。 海平面上的气压为1021 hPa (QNH)。

白天

今天,太阳从07:44升起,在17:40降落。 这适用于Ech Cheliff Airport,世界夏令时可能有所不同。 当地时间与世界标准时间之间的时差为+1 小时。 当前,没有夏令时有效。

公司介绍

我们没有关于这个机场的公司信息。

体会

到Vliegles.nl去找飞行课程,跳伞和其他飞行体验。 浏览页面,了解Ech Cheliff Airport附近所有可用的活动。 你也可以使用搜索功能来寻找你所在地附近的特定飞行课程、跳伞或其他飞行体验。

跑道

Id 标题 侧风 逆风 侧风 %
7/25 066°-246° 4 kt 3 kt 72 %
8/26 080°-260° 4 kt 3 kt 87 %

逆风成分最大的方向会被突出显示,并用于横风计算。 这并不一定意味着这个方向在使用。

温度 & 天气

温度 3 °C
露点 -8 °C
相对湿度 45%
风寒 -2 °C
Kp-index 3 (0-9)

白天

日出
07:41 (2:50)
中午
12:42
日落
17:42

小工具

你想在你的网站上有一个关于Ech Cheliff Airport的当前航空天气(METAR)的小部件吗?

显示HTML代码

我们和第三方通过cookies跟踪您在我们网站上的互联网行为。如果你继续,我们认为你同意我们的饼干政策